Time,TemperatureF,DewpointF,PressureIn,WindDirection,WindDirectionDegrees,WindSpeedMPH,WindSpeedGustMPH,Humidity,HourlyPrecipIn,Conditions,Clouds,dailyrainin,SoftwareType,DateUTC
2013-03-06 00:06:00,59.8,55.0,29.73,WSW,243,7.0,14.0,84,0.00,,,0.00,weatherlink.com 1.10,2013-03-06 05:06:00,
2013-03-06 00:21:00,59.6,56.0,29.73,West,262,9.0,17.0,86,0.00,,,0.00,weatherlink.com 1.10,2013-03-06 05:21:00,
2013-03-06 00:36:00,59.6,55.0,29.73,West,259,9.0,13.0,85,0.00,,,0.00,weatherlink.com 1.10,2013-03-06 05:36:00,
2013-03-06 00:51:00,59.3,55.0,29.72,West,260,7.0,16.0,85,0.00,,,0.00,weatherlink.com 1.10,2013-03-06 05:51:00,
2013-03-06 01:06:00,59.0,55.0,29.72,SW,229,4.0,13.0,86,0.00,,,0.00,weatherlink.com 1.10,2013-03-06 06:06:00,
2013-03-06 01:21:00,58.7,54.0,29.72,WNW,295,6.0,17.0,85,0.00,,,0.00,weatherlink.com 1.10,2013-03-06 06:21:00,
2013-03-06 01:36:00,58.4,53.0,29.72,West,260,7.0,21.0,83,0.00,,,0.00,weatherlink.com 1.10,2013-03-06 06:36:00,
2013-03-06 01:51:00,58.1,52.0,29.72,West,280,14.0,18.0,81,0.00,,,0.00,weatherlink.com 1.10,2013-03-06 06:51:00,
2013-03-06 02:06:00,57.7,52.0,29.72,West,263,7.0,19.0,80,0.00,,,0.00,weatherlink.com 1.10,2013-03-06 07:06:00,
2013-03-06 02:21:00,56.6,48.0,29.73,WNW,284,13.0,24.0,74,0.00,,,0.00,weatherlink.com 1.10,2013-03-06 07:21:00,
2013-03-06 02:36:00,54.5,42.0,29.73,WNW,283,13.0,31.0,64,0.00,,,0.00,weatherlink.com 1.10,2013-03-06 07:36:00,
2013-03-06 02:51:00,53.3,43.0,29.74,West,274,8.0,18.0,67,0.00,,,0.00,weatherlink.com 1.10,2013-03-06 07:51:00,
2013-03-06 03:06:00,50.8,39.0,29.76,North,352,12.0,24.0,64,0.00,,,0.00,weatherlink.com 1.10,2013-03-06 08:06:00,
2013-03-06 03:21:00,49.0,37.0,29.76,North,353,9.0,28.0,63,0.00,,,0.00,weatherlink.com 1.10,2013-03-06 08:21:00,
2013-03-06 03:36:00,47.7,37.0,29.77,NE,50,6.0,33.0,67,0.00,,,0.00,weatherlink.com 1.10,2013-03-06 08:36:00,
2013-03-06 03:52:00,46.7,36.0,29.79,West,278,11.0,23.0,67,0.00,,,0.00,weatherlink.com 1.10,2013-03-06 08:52:00,
2013-03-06 04:07:00,45.9,36.0,29.80,West,277,13.0,30.0,69,0.00,,,0.00,weatherlink.com 1.10,2013-03-06 09:07:00,
2013-03-06 04:22:00,45.4,35.0,29.80,West,276,13.0,23.0,67,0.00,,,0.00,weatherlink.com 1.10,2013-03-06 09:22:00,
2013-03-06 04:37:00,44.9,34.0,29.81,WNW,298,17.0,24.0,67,0.00,,,0.00,weatherlink.com 1.10,2013-03-06 09:37:00,
2013-03-06 04:52:00,44.5,34.0,29.81,WNW,288,15.0,27.0,67,0.00,,,0.00,weatherlink.com 1.10,2013-03-06 09:52:00,
2013-03-06 05:07:00,44.1,34.0,29.82,WNW,295,15.0,23.0,68,0.00,,,0.00,weatherlink.com 1.10,2013-03-06 10:07:00,
2013-03-06 05:22:00,43.7,33.0,29.82,NNW,333,5.0,20.0,67,0.00,,,0.00,weatherlink.com 1.10,2013-03-06 10:22:00,
2013-03-06 05:37:00,43.4,33.0,29.82,SSE,163,4.0,17.0,67,0.00,,,0.00,weatherlink.com 1.10,2013-03-06 10:37:00,
2013-03-06 05:52:00,43.2,34.0,29.82,West,280,10.0,19.0,69,0.00,,,0.00,weatherlink.com 1.10,2013-03-06 10:52:00,
2013-03-06 06:07:00,42.9,33.0,29.83,West,271,9.0,19.0,69,0.00,,,0.00,weatherlink.com 1.10,2013-03-06 11:07:00,
2013-03-06 06:22:00,42.8,31.0,29.82,West,276,12.0,22.0,64,0.00,,,0.00,weatherlink.com 1.10,2013-03-06 11:22:00,
2013-03-06 06:37:00,42.8,31.0,29.83,WNW,290,14.0,19.0,64,0.00,,,0.00,weatherlink.com 1.10,2013-03-06 11:37:00,
2013-03-06 06:52:00,42.5,32.0,29.84,WSW,255,8.0,18.0,66,0.00,,,0.00,weatherlink.com 1.10,2013-03-06 11:52:00,
2013-03-06 07:07:00,42.5,32.0,29.84,West,280,10.0,21.0,66,0.00,,,0.00,weatherlink.com 1.10,2013-03-06 12:07:00,
2013-03-06 07:22:00,42.5,32.0,29.85,West,274,17.0,22.0,66,0.00,,,0.00,weatherlink.com 1.10,2013-03-06 12:22:00,
2013-03-06 07:37:00,42.7,32.0,29.86,WNW,285,25.0,27.0,65,0.00,,,0.00,weatherlink.com 1.10,2013-03-06 12:37:00,
2013-03-06 07:52:00,42.8,31.0,29.86,WNW,295,15.0,24.0,64,0.00,,,0.00,weatherlink.com 1.10,2013-03-06 12:52:00,
2013-03-06 08:07:00,43.1,32.0,29.87,West,275,15.0,22.0,64,0.00,,,0.00,weatherlink.com 1.10,2013-03-06 13:07:00,
2013-03-06 08:22:00,43.4,31.0,29.87,West,270,13.0,24.0,63,0.00,,,0.00,weatherlink.com 1.10,2013-03-06 13:22:00,
2013-03-06 08:37:00,43.0,31.0,29.87,WNW,302,16.0,22.0,63,0.00,,,0.00,weatherlink.com 1.10,2013-03-06 13:37:00,
2013-03-06 08:52:00,42.8,32.0,29.88,WNW,287,12.0,26.0,67,0.00,,,0.00,weatherlink.com 1.10,2013-03-06 13:52:00,
2013-03-06 09:07:00,43.1,32.0,29.88,WNW,293,11.0,24.0,65,0.00,,,0.00,weatherlink.com 1.10,2013-03-06 14:07:00,
2013-03-06 09:22:00,43.6,31.0,29.88,WNW,295,8.0,23.0,61,0.00,,,0.00,weatherlink.com 1.10,2013-03-06 14:22:00,
2013-03-06 09:37:00,44.5,29.0,29.88,NW,310,6.0,23.0,56,0.00,,,0.00,weatherlink.com 1.10,2013-03-06 14:37:00,
2013-03-06 09:52:00,44.9,28.0,29.88,NNW,347,5.0,23.0,51,0.00,,,0.00,weatherlink.com 1.10,2013-03-06 14:52:00,
2013-03-06 10:07:00,44.9,28.0,29.89,NW,308,13.0,23.0,51,0.00,,,0.00,weatherlink.com 1.10,2013-03-06 15:07:00,
2013-03-06 10:23:00,44.8,26.0,29.89,West,277,10.0,22.0,48,0.00,,,0.00,weatherlink.com 1.10,2013-03-06 15:23:00,
2013-03-06 10:38:00,45.0,26.0,29.89,WNW,293,16.0,26.0,47,0.00,,,0.00,weatherlink.com 1.10,2013-03-06 15:38:00,
2013-03-06 10:53:00,44.9,26.0,29.89,WNW,287,14.0,23.0,48,0.00,,,0.00,weatherlink.com 1.10,2013-03-06 15:53:00,
2013-03-06 11:08:00,45.6,26.0,29.90,WNW,285,13.0,21.0,46,0.00,,,0.00,weatherlink.com 1.10,2013-03-06 16:08:00,
2013-03-06 11:23:00,46.1,28.0,29.89,NE,49,10.0,25.0,49,0.00,,,0.00,weatherlink.com 1.10,2013-03-06 16:23:00,
2013-03-06 11:38:00,46.9,27.0,29.89,NW,319,12.0,22.0,47,0.00,,,0.00,weatherlink.com 1.10,2013-03-06 16:38:00,
2013-03-06 11:53:00,47.3,27.0,29.88,West,270,4.0,23.0,46,0.00,,,0.00,weatherlink.com 1.10,2013-03-06 16:53:00,
2013-03-06 12:08:00,47.5,28.0,29.87,NW,304,5.0,22.0,48,0.00,,,0.00,weatherlink.com 1.10,2013-03-06 17:08:00,
2013-03-06 12:23:00,48.4,28.0,29.88,West,280,11.0,21.0,46,0.00,,,0.00,weatherlink.com 1.10,2013-03-06 17:23:00,
2013-03-06 12:38:00,48.4,28.0,29.87,WNW,302,10.0,22.0,46,0.00,,,0.00,weatherlink.com 1.10,2013-03-06 17:38:00,
2013-03-06 12:53:00,48.7,27.0,29.86,West,277,23.0,28.0,44,0.00,,,0.00,weatherlink.com 1.10,2013-03-06 17:53:00,
2013-03-06 13:23:00,49.3,28.0,29.85,NW,321,5.0,19.0,44,0.00,,,0.00,weatherlink.com 1.10,2013-03-06 18:23:00,
2013-03-06 13:38:00,49.6,28.0,29.85,West,278,11.0,24.0,44,0.00,,,0.00,weatherlink.com 1.10,2013-03-06 18:38:00,
2013-03-06 13:53:00,50.1,28.0,29.85,WNW,300,8.0,23.0,43,0.00,,,0.00,weatherlink.com 1.10,2013-03-06 18:53:00,
2013-03-06 14:08:00,50.1,28.0,29.85,NNW,339,6.0,25.0,42,0.00,,,0.00,weatherlink.com 1.10,2013-03-06 19:08:00,
2013-03-06 14:23:00,50.5,28.0,29.85,North,351,9.0,21.0,42,0.00,,,0.00,weatherlink.com 1.10,2013-03-06 19:23:00,
2013-03-06 15:08:00,50.4,28.0,29.87,NNW,342,6.0,27.0,43,0.00,,,0.00,weatherlink.com 1.10,2013-03-06 20:08:00,
2013-03-06 15:23:00,50.8,29.0,29.86,WSW,243,8.0,23.0,43,0.00,,,0.00,weatherlink.com 1.10,2013-03-06 20:23:00,
2013-03-06 16:08:00,51.9,30.0,29.88,West,270,9.0,19.0,43,0.00,,,0.00,weatherlink.com 1.10,2013-03-06 21:08:00,
2013-03-06 16:23:00,52.1,29.0,29.88,ENE,67,11.0,20.0,42,0.00,,,0.00,weatherlink.com 1.10,2013-03-06 21:23:00,
2013-03-06 16:38:00,52.3,30.0,29.89,WNW,298,6.0,23.0,42,0.00,,,0.00,weatherlink.com 1.10,2013-03-06 21:38:00,
2013-03-06 16:53:00,52.8,31.0,29.89,NNW,330,10.0,17.0,43,0.00,,,0.00,weatherlink.com 1.10,2013-03-06 21:53:00,
2013-03-06 17:08:00,52.7,30.0,29.89,SW,215,9.0,18.0,42,0.00,,,0.00,weatherlink.com 1.10,2013-03-06 22:08:00,
2013-03-06 17:23:00,52.4,30.0,29.90,NNE,22,8.0,19.0,43,0.00,,,0.00,weatherlink.com 1.10,2013-03-06 22:23:00,
2013-03-06 17:38:00,52.5,30.0,29.91,WNW,284,6.0,19.0,43,0.00,,,0.00,weatherlink.com 1.10,2013-03-06 22:38:00,
2013-03-06 17:53:00,52.4,30.0,29.92,NW,309,12.0,18.0,43,0.00,,,0.00,weatherlink.com 1.10,2013-03-06 22:53:00,
2013-03-06 18:08:00,51.8,30.0,29.93,North,11,7.0,15.0,43,0.00,,,0.00,weatherlink.com 1.10,2013-03-06 23:08:00,
2013-03-06 18:23:00,51.2,30.0,29.94,NW,322,10.0,16.0,45,0.00,,,0.00,weatherlink.com 1.10,2013-03-06 23:23:00,
2013-03-06 18:38:00,50.8,32.0,29.95,WNW,290,7.0,18.0,48,0.00,,,0.00,weatherlink.com 1.10,2013-03-06 23:38:00,
2013-03-06 18:53:00,50.4,31.0,29.96,West,262,6.0,17.0,48,0.00,,,0.00,weatherlink.com 1.10,2013-03-06 23:53:00,
2013-03-06 19:08:00,50.1,31.0,29.98,West,280,4.0,11.0,48,0.00,,,0.00,weatherlink.com 1.10,2013-03-07 00:08:00,
2013-03-06 19:23:00,49.9,31.0,29.99,NNW,342,8.0,15.0,48,0.00,,,0.00,weatherlink.com 1.10,2013-03-07 00:23:00,
2013-03-06 19:38:00,49.6,31.0,30.00,NNE,19,5.0,11.0,50,0.00,,,0.00,weatherlink.com 1.10,2013-03-07 00:38:00,
2013-03-06 19:53:00,49.6,31.0,30.00,North,8,5.0,15.0,50,0.00,,,0.00,weatherlink.com 1.10,2013-03-07 00:53:00,
2013-03-06 20:08:00,49.3,32.0,30.02,NW,318,3.0,12.0,51,0.00,,,0.00,weatherlink.com 1.10,2013-03-07 01:08:00,
2013-03-06 20:23:00,49.0,32.0,30.02,North,11,7.0,10.0,52,0.00,,,0.00,weatherlink.com 1.10,2013-03-07 01:23:00,
2013-03-06 20:38:00,48.8,31.0,30.03,NNW,347,4.0,12.0,51,0.00,,,0.00,weatherlink.com 1.10,2013-03-07 01:38:00,
2013-03-06 20:53:00,48.4,31.0,30.04,NNW,330,6.0,11.0,52,0.00,,,0.00,weatherlink.com 1.10,2013-03-07 01:53:00,
2013-03-06 21:08:00,47.9,31.0,30.05,NNE,27,3.0,9.0,53,0.00,,,0.00,weatherlink.com 1.10,2013-03-07 02:08:00,
2013-03-06 21:23:00,47.7,32.0,30.05,NE,51,4.0,13.0,54,0.00,,,0.00,weatherlink.com 1.10,2013-03-07 02:23:00,
2013-03-06 21:38:00,47.7,31.0,30.06,North,1,6.0,13.0,53,0.00,,,0.00,weatherlink.com 1.10,2013-03-07 02:38:00,
2013-03-06 21:53:00,47.3,31.0,30.06,North,350,4.0,9.0,54,0.00,,,0.00,weatherlink.com 1.10,2013-03-07 02:53:00,
2013-03-06 22:09:00,47.0,31.0,30.07,NNE,16,2.0,11.0,55,0.00,,,0.00,weatherlink.com 1.10,2013-03-07 03:09:00,
2013-03-06 22:24:00,46.7,32.0,30.07,North,4,2.0,9.0,56,0.00,,,0.00,weatherlink.com 1.10,2013-03-07 03:24:00,
2013-03-06 22:39:00,46.0,31.0,30.08,North,353,4.0,8.0,57,0.00,,,0.00,weatherlink.com 1.10,2013-03-07 03:39:00,
2013-03-06 22:54:00,45.7,31.0,30.07,NNW,329,4.0,8.0,58,0.00,,,0.00,weatherlink.com 1.10,2013-03-07 03:54:00,
2013-03-06 23:09:00,45.4,32.0,30.08,NNW,347,5.0,6.0,59,0.00,,,0.00,weatherlink.com 1.10,2013-03-07 04:09:00,
2013-03-06 23:24:00,45.1,32.0,30.09,NW,319,6.0,6.0,60,0.00,,,0.00,weatherlink.com 1.10,2013-03-07 04:24:00,
2013-03-06 23:39:00,44.8,32.0,30.09,NNE,25,3.0,7.0,61,0.00,,,0.00,weatherlink.com 1.10,2013-03-07 04:39:00,
2013-03-06 23:54:00,44.5,31.0,30.09,NW,313,6.0,8.0,60,0.00,,,0.00,weatherlink.com 1.10,2013-03-07 04:54:00,